createdAt,value
2019-06-26T00:00:46.316Z,10.67
2019-06-26T00:03:16.329Z,11.40
2019-06-26T00:05:46.471Z,11.00
2019-06-26T00:08:16.725Z,10.07
2019-06-26T00:10:46.832Z,14.40
2019-06-26T00:13:26.060Z,13.80
2019-06-26T00:15:48.659Z,14.27
2019-06-26T00:18:19.019Z,13.80
2019-06-26T00:20:49.466Z,14.97
2019-06-26T00:23:19.769Z,16.00
2019-06-26T00:25:50.072Z,16.30
2019-06-26T00:28:20.160Z,15.43
2019-06-26T00:30:50.156Z,16.87
2019-06-26T00:33:20.434Z,15.90
2019-06-26T00:35:50.297Z,18.42
2019-06-26T00:38:21.029Z,17.90
2019-06-26T00:40:51.372Z,16.30
2019-06-26T00:43:22.912Z,17.50
2019-06-26T00:45:54.364Z,16.13
2019-06-26T00:48:24.620Z,17.60
2019-06-26T00:50:54.617Z,17.40
2019-06-26T00:53:26.400Z,17.70
2019-06-26T00:55:57.272Z,17.53
2019-06-26T00:58:27.571Z,18.67
2019-06-26T01:00:57.767Z,18.63
2019-06-26T01:03:28.790Z,22.27
2019-06-26T01:05:59.753Z,22.53
2019-06-26T01:08:29.963Z,22.27
2019-06-26T01:11:02.591Z,24.50
2019-06-26T01:13:33.377Z,26.80
2019-06-26T01:16:03.439Z,24.70
2019-06-26T01:18:33.946Z,26.80
2019-06-26T01:21:04.439Z,26.47
2019-06-26T01:23:34.562Z,27.10
2019-06-26T01:26:04.725Z,29.13
2019-06-26T01:28:34.713Z,26.63
2019-06-26T01:31:04.701Z,26.80
2019-06-26T01:33:34.530Z,28.83
2019-06-26T01:36:04.425Z,29.60
2019-06-26T01:38:34.300Z,27.80
2019-06-26T01:41:04.596Z,27.73
2019-06-26T01:43:34.487Z,27.27
2019-06-26T01:46:04.784Z,24.13
2019-06-26T01:48:34.694Z,25.00
2019-06-26T01:51:07.137Z,25.67
2019-06-26T01:53:37.282Z,26.00
2019-06-26T01:56:07.676Z,27.70
2019-06-26T01:58:37.756Z,25.50
2019-06-26T02:01:07.678Z,26.37
2019-06-26T02:03:37.594Z,27.17
2019-06-26T02:06:07.577Z,29.50
2019-06-26T02:08:37.590Z,28.87
2019-06-26T02:11:07.697Z,28.30
2019-06-26T02:13:37.694Z,31.57
2019-06-26T02:16:07.620Z,29.57
2019-06-26T02:18:51.260Z,28.37
2019-06-26T02:21:21.275Z,29.10
2019-06-26T02:23:51.515Z,30.93
2019-06-26T02:26:22.124Z,30.37
2019-06-26T02:28:52.030Z,30.77
2019-06-26T02:31:22.155Z,29.27
2019-06-26T02:33:54.438Z,33.30
2019-06-26T02:36:24.802Z,30.87
2019-06-26T02:38:56.072Z,33.77
2019-06-26T02:41:25.837Z,36.70
2019-06-26T02:43:56.099Z,38.33
2019-06-26T02:46:26.448Z,35.23
2019-06-26T02:48:56.258Z,40.47
2019-06-26T02:51:26.188Z,35.00
2019-06-26T02:53:56.143Z,40.60
2019-06-26T02:56:26.079Z,38.77
2019-06-26T02:58:55.931Z,42.50
2019-06-26T03:01:25.896Z,41.77
2019-06-26T03:03:55.845Z,41.40
2019-06-26T03:06:27.138Z,42.57
2019-06-26T03:08:56.940Z,45.33
2019-06-26T03:11:26.723Z,40.90
2019-06-26T03:13:56.599Z,41.60
2019-06-26T03:16:26.512Z,46.20
2019-06-26T03:18:56.709Z,42.20
2019-06-26T03:21:26.475Z,41.57
2019-06-26T03:23:56.402Z,46.80
2019-06-26T03:26:26.523Z,40.23
2019-06-26T03:28:56.391Z,41.73
2019-06-26T03:31:27.106Z,43.77
2019-06-26T03:33:56.975Z,45.27
2019-06-26T03:36:27.079Z,42.73
2019-06-26T03:38:56.909Z,43.40
2019-06-26T03:41:26.828Z,42.20
2019-06-26T03:43:56.852Z,45.67
2019-06-26T03:46:29.195Z,41.03
2019-06-26T03:49:05.627Z,43.73
2019-06-26T03:51:46.509Z,41.80
2019-06-26T03:54:16.483Z,41.23
2019-06-26T03:56:46.518Z,40.80
2019-06-26T03:59:17.089Z,38.87
2019-06-26T04:01:48.484Z,43.80
2019-06-26T04:04:18.354Z,41.87
2019-06-26T04:06:48.453Z,41.77
2019-06-26T04:09:19.184Z,42.17
2019-06-26T04:11:49.093Z,41.37
2019-06-26T04:14:19.440Z,40.80
2019-06-26T04:16:49.447Z,43.23
2019-06-26T04:19:19.640Z,44.10
2019-06-26T04:21:49.848Z,41.60
2019-06-26T04:24:20.196Z,40.73
2019-06-26T04:26:50.604Z,45.63
2019-06-26T04:29:20.357Z,41.50
2019-06-26T04:31:50.960Z,41.33
2019-06-26T04:34:20.906Z,41.40
2019-06-26T04:36:51.230Z,40.20
2019-06-26T04:39:21.368Z,37.27
2019-06-26T04:41:53.268Z,37.10
2019-06-26T04:44:23.722Z,42.30
2019-06-26T04:46:53.785Z,39.73
2019-06-26T04:49:24.374Z,39.63
2019-06-26T04:51:54.260Z,41.07
2019-06-26T04:54:24.505Z,39.50
2019-06-26T04:56:55.031Z,41.83
2019-06-26T04:59:24.967Z,42.93
2019-06-26T05:01:55.471Z,43.30
2019-06-26T05:04:25.238Z,46.00
2019-06-26T05:06:56.564Z,44.93
2019-06-26T05:09:26.757Z,39.33
2019-06-26T05:11:57.344Z,43.73
2019-06-26T05:14:27.197Z,44.03
2019-06-26T05:16:58.354Z,41.50
2019-06-26T05:19:28.721Z,44.23
2019-06-26T05:21:58.776Z,45.13
2019-06-26T05:24:29.113Z,45.50
2019-06-26T05:26:59.507Z,43.17
2019-06-26T05:29:30.085Z,44.70
2019-06-26T05:32:00.039Z,48.23
2019-06-26T05:34:29.993Z,43.90
2019-06-26T05:37:00.131Z,45.87
2019-06-26T05:39:30.115Z,45.37
2019-06-26T05:42:00.484Z,46.50
2019-06-26T05:44:30.320Z,47.47
2019-06-26T05:47:00.791Z,50.43
2019-06-26T05:49:30.808Z,46.87
2019-06-26T05:52:02.158Z,46.23
2019-06-26T05:54:32.277Z,43.03
2019-06-26T05:57:02.213Z,45.13
2019-06-26T05:59:32.128Z,45.90
2019-06-26T06:02:02.967Z,45.30
2019-06-26T06:04:33.195Z,44.93
2019-06-26T06:07:03.432Z,44.40
2019-06-26T06:09:33.498Z,45.70
2019-06-26T06:12:04.145Z,44.60
2019-06-26T06:14:34.592Z,43.67
2019-06-26T06:17:05.524Z,42.53
2019-06-26T06:19:35.827Z,41.73
2019-06-26T06:22:06.541Z,46.63
2019-06-26T06:24:36.723Z,37.27
2019-06-26T06:27:07.727Z,36.73
2019-06-26T06:29:40.308Z,37.90
2019-06-26T06:32:11.385Z,38.10
2019-06-26T06:34:41.290Z,34.90
2019-06-26T06:37:11.469Z,36.23
2019-06-26T06:39:42.080Z,33.77
2019-06-26T06:42:12.267Z,33.63
2019-06-26T06:45:28.268Z,30.40
2019-06-26T06:48:09.969Z,49.27
2019-06-26T06:50:40.794Z,30.90
2019-06-26T06:53:10.964Z,30.77
2019-06-26T06:55:41.436Z,29.37
2019-06-26T06:58:11.724Z,30.27
2019-06-26T07:00:42.747Z,28.00
2019-06-26T07:03:13.123Z,26.50
2019-06-26T07:05:45.789Z,26.77
2019-06-26T07:08:16.032Z,29.90
2019-06-26T07:10:46.386Z,24.60
2019-06-26T07:13:16.418Z,24.83
2019-06-26T07:15:47.710Z,24.30
2019-06-26T07:18:17.917Z,24.67
2019-06-26T07:20:48.178Z,21.10
2019-06-26T07:23:18.348Z,21.80
2019-06-26T07:25:48.459Z,20.53
2019-06-26T07:28:18.691Z,17.10
2019-06-26T07:30:49.740Z,19.40
2019-06-26T07:33:20.438Z,18.57
2019-06-26T07:35:50.577Z,19.03
2019-06-26T07:38:20.481Z,17.90
2019-06-26T07:40:52.410Z,18.30
2019-06-26T07:43:22.499Z,18.53
2019-06-26T07:45:52.637Z,20.33
2019-06-26T07:48:22.712Z,20.73
2019-06-26T07:50:52.714Z,19.40
2019-06-26T07:53:23.840Z,18.50
2019-06-26T07:55:53.775Z,19.37
2019-06-26T07:58:24.205Z,17.73
2019-06-26T08:00:54.450Z,17.30
2019-06-26T08:03:27.265Z,16.57
2019-06-26T08:05:57.239Z,16.10
2019-06-26T08:08:27.796Z,16.03
2019-06-26T08:10:57.733Z,15.73
2019-06-26T08:13:31.592Z,16.40
2019-06-26T08:16:02.202Z,12.93
2019-06-26T08:18:33.771Z,13.47
2019-06-26T08:21:11.971Z,12.33
2019-06-26T08:23:36.643Z,11.37
2019-06-26T08:26:07.159Z,12.45
2019-06-26T08:28:37.480Z,11.93
2019-06-26T08:31:09.032Z,12.58
2019-06-26T08:33:39.134Z,12.88
2019-06-26T08:36:11.699Z,9.18
2019-06-26T08:38:42.774Z,9.35
2019-06-26T08:41:13.609Z,10.25
2019-06-26T08:43:43.460Z,8.88
2019-06-26T08:46:13.695Z,10.10
2019-06-26T08:48:44.690Z,9.28
2019-06-26T08:51:15.414Z,10.97
2019-06-26T08:53:45.649Z,9.20
2019-06-26T08:56:16.968Z,10.18
2019-06-26T08:58:46.984Z,11.37
2019-06-26T09:01:17.953Z,10.10
2019-06-26T09:03:48.207Z,10.50
2019-06-26T09:06:24.960Z,11.67
2019-06-26T09:08:55.242Z,9.60
2019-06-26T09:11:27.956Z,10.83
2019-06-26T09:13:58.503Z,11.13
2019-06-26T09:16:29.270Z,10.47
2019-06-26T09:19:06.629Z,11.87
2019-06-26T09:21:40.580Z,10.57
2019-06-26T09:24:10.717Z,12.30
2019-06-26T09:26:40.825Z,12.37
2019-06-26T09:29:10.841Z,14.50
2019-06-26T09:31:41.514Z,14.87
2019-06-26T09:34:11.526Z,12.05
2019-06-26T09:36:43.315Z,13.10
2019-06-26T09:39:15.053Z,10.90
2019-06-26T09:41:45.071Z,10.40
2019-06-26T09:44:22.315Z,10.25
2019-06-26T09:46:52.463Z,9.10
2019-06-26T09:49:22.902Z,9.43
2019-06-26T09:51:53.530Z,9.48
2019-06-26T09:54:23.839Z,9.80
2019-06-26T09:56:54.509Z,11.03
2019-06-26T09:59:24.919Z,9.65
2019-06-26T10:01:56.633Z,13.22
2019-06-26T10:04:27.547Z,11.73
2019-06-26T10:06:57.679Z,11.28
2019-06-26T10:09:34.713Z,10.18
2019-06-26T10:12:05.658Z,10.70
2019-06-26T10:14:47.306Z,9.90
2019-06-26T10:17:07.510Z,11.35
2019-06-26T10:19:37.967Z,8.58
2019-06-26T10:22:11.368Z,9.58
2019-06-26T10:24:41.834Z,8.75
2019-06-26T10:27:20.905Z,8.98
2019-06-26T10:29:57.841Z,10.08
2019-06-26T10:32:31.212Z,9.48
2019-06-26T10:35:01.067Z,8.40
2019-06-26T10:37:31.008Z,10.10
2019-06-26T10:40:02.511Z,11.40
2019-06-26T10:42:32.685Z,9.73
2019-06-26T10:45:03.348Z,9.85
2019-06-26T10:47:34.095Z,12.03
2019-06-26T10:50:05.147Z,11.70
2019-06-26T10:52:36.130Z,10.95
2019-06-26T10:55:07.961Z,9.65
2019-06-26T10:57:38.539Z,9.95
2019-06-26T11:00:11.204Z,10.65
2019-06-26T11:02:41.631Z,10.15
2019-06-26T11:05:17.474Z,10.20
2019-06-26T11:07:51.840Z,12.47
2019-06-26T11:10:23.443Z,12.30
2019-06-26T11:12:54.277Z,16.45
2019-06-26T11:15:24.976Z,14.07
2019-06-26T11:17:55.206Z,12.33
2019-06-26T11:20:26.019Z,12.40
2019-06-26T11:22:58.628Z,13.53
2019-06-26T11:25:29.377Z,11.30
2019-06-26T11:27:59.665Z,14.13
2019-06-26T11:30:29.815Z,10.90
2019-06-26T11:33:00.313Z,12.28
2019-06-26T11:35:30.245Z,14.28
2019-06-26T11:38:00.572Z,12.25
2019-06-26T11:40:31.972Z,13.15
2019-06-26T11:43:02.342Z,12.85
2019-06-26T11:45:32.362Z,13.48
2019-06-26T11:48:02.790Z,12.23
2019-06-26T11:50:33.561Z,11.55
2019-06-26T11:53:03.868Z,11.22
2019-06-26T11:55:34.124Z,12.33
2019-06-26T11:58:05.209Z,12.43
2019-06-26T12:00:35.296Z,13.75
2019-06-26T12:03:07.212Z,12.40
2019-06-26T12:05:43.614Z,18.30
2019-06-26T12:08:14.367Z,12.43
2019-06-26T12:10:44.814Z,13.98
2019-06-26T12:13:15.905Z,11.22
2019-06-26T12:15:46.326Z,13.03
2019-06-26T12:18:18.355Z,11.88
2019-06-26T12:20:48.475Z,12.75
2019-06-26T12:23:20.537Z,16.85
2019-06-26T12:25:50.876Z,14.23
2019-06-26T12:28:21.070Z,14.78
2019-06-26T12:30:53.116Z,16.80
2019-06-26T12:33:30.223Z,17.70
2019-06-26T12:36:20.130Z,17.67
2019-06-26T12:38:53.578Z,19.85
2019-06-26T12:41:23.989Z,18.65
2019-06-26T12:43:54.555Z,17.65
2019-06-26T12:46:25.366Z,17.05
2019-06-26T12:48:55.415Z,18.02
2019-06-26T12:51:25.807Z,14.18
2019-06-26T12:53:58.392Z,14.00
2019-06-26T12:56:27.591Z,11.45
2019-06-26T12:58:59.943Z,11.63
2019-06-26T13:01:31.543Z,10.32
2019-06-26T13:04:02.100Z,10.08
2019-06-26T13:06:32.646Z,11.35
2019-06-26T13:09:02.887Z,11.18
2019-06-26T13:11:34.343Z,11.18
2019-06-26T13:14:05.021Z,10.38
2019-06-26T13:16:35.248Z,12.82
2019-06-26T13:19:06.684Z,13.47
2019-06-26T13:21:37.630Z,12.27
2019-06-26T13:24:07.964Z,12.40
2019-06-26T13:26:39.313Z,14.10
2019-06-26T13:29:10.073Z,15.83
2019-06-26T13:31:40.927Z,18.63
2019-06-26T13:34:11.037Z,15.73
2019-06-26T13:36:42.520Z,16.70
2019-06-26T13:39:12.895Z,14.50
2019-06-26T13:41:43.106Z,17.00
2019-06-26T13:44:13.236Z,16.27
2019-06-26T13:46:43.626Z,16.10
2019-06-26T13:49:16.522Z,14.83
2019-06-26T13:51:47.433Z,14.43
2019-06-26T13:54:23.357Z,16.40
2019-06-26T13:56:54.011Z,15.90
2019-06-26T13:59:24.097Z,14.17
2019-06-26T14:01:54.397Z,14.00
2019-06-26T14:04:24.611Z,14.90
2019-06-26T14:06:55.267Z,16.30
2019-06-26T14:09:25.802Z,14.13
2019-06-26T14:11:56.462Z,12.87
2019-06-26T14:14:52.446Z,13.23
2019-06-26T14:17:02.160Z,13.50
2019-06-26T14:19:39.360Z,13.53
2019-06-26T14:22:12.903Z,13.00
2019-06-26T14:24:42.084Z,12.87
2019-06-26T14:27:12.895Z,11.73
2019-06-26T14:29:50.129Z,12.20
2019-06-26T14:32:25.042Z,13.50
2019-06-26T14:34:57.343Z,12.90
2019-06-26T14:37:27.545Z,13.43
2019-06-26T14:39:58.346Z,12.37
2019-06-26T14:42:30.989Z,12.20
2019-06-26T14:45:03.230Z,14.60
2019-06-26T14:47:38.115Z,12.60
2019-06-26T14:50:09.549Z,15.50
2019-06-26T14:52:50.985Z,12.87
2019-06-26T14:55:23.061Z,13.03
2019-06-26T14:57:56.655Z,11.20
2019-06-26T15:00:27.443Z,13.17
2019-06-26T15:03:10.190Z,10.67
2019-06-26T15:05:33.485Z,11.20
2019-06-26T15:08:05.356Z,10.80
2019-06-26T15:10:37.627Z,11.70
2019-06-26T15:13:08.202Z,10.00
2019-06-26T15:15:39.033Z,11.70
2019-06-26T15:18:10.728Z,9.90
2019-06-26T15:20:41.827Z,10.50
2019-06-26T15:23:12.676Z,11.23
2019-06-26T15:25:43.422Z,11.13
2019-06-26T15:28:16.025Z,11.73
2019-06-26T15:30:46.704Z,12.13
2019-06-26T15:33:20.131Z,14.37
2019-06-26T15:35:50.879Z,12.70
2019-06-26T15:38:21.017Z,13.00
2019-06-26T15:40:51.350Z,11.17
2019-06-26T15:43:22.153Z,13.73
2019-06-26T15:45:52.523Z,10.40
2019-06-26T15:48:24.038Z,12.10
2019-06-26T15:50:54.952Z,12.57
2019-06-26T15:53:26.562Z,13.37
2019-06-26T15:55:57.147Z,12.63
2019-06-26T15:58:48.860Z,13.60
2019-06-26T16:01:19.960Z,9.60
2019-06-26T16:03:51.702Z,11.93
2019-06-26T16:06:22.336Z,11.47
2019-06-26T16:09:07.472Z,12.37
2019-06-26T16:11:37.685Z,12.97
2019-06-26T16:14:08.990Z,9.60
2019-06-26T16:16:41.442Z,14.17
2019-06-26T16:19:16.088Z,14.53
2019-06-26T16:21:47.791Z,13.50
2019-06-26T16:24:30.229Z,14.27
2019-06-26T16:27:20.425Z,14.23
2019-06-26T16:30:03.582Z,15.80
2019-06-26T16:32:35.262Z,14.33
2019-06-26T16:35:12.363Z,16.27
2019-06-26T16:37:46.023Z,15.70
2019-06-26T16:40:16.467Z,16.63
2019-06-26T16:42:48.413Z,16.07
2019-06-26T16:45:19.660Z,15.33
2019-06-26T16:47:50.603Z,18.07
2019-06-26T16:50:21.674Z,16.23
2019-06-26T16:52:52.605Z,20.10
2019-06-26T16:55:27.709Z,17.20
2019-06-26T16:57:58.523Z,14.20
2019-06-26T17:00:29.498Z,13.70
2019-06-26T17:03:01.254Z,15.20
2019-06-26T17:05:31.372Z,14.57
2019-06-26T17:08:02.006Z,14.23
2019-06-26T17:10:32.578Z,19.83
2019-06-26T17:13:04.636Z,18.27
2019-06-26T17:15:38.516Z,14.30
2019-06-26T17:18:08.968Z,11.33
2019-06-26T17:20:40.021Z,13.53
2019-06-26T17:23:11.315Z,12.77
2019-06-26T17:25:42.954Z,14.83
2019-06-26T17:28:14.812Z,16.53
2019-06-26T17:30:47.840Z,14.67
2019-06-26T17:33:33.596Z,12.87
2019-06-26T17:36:18.091Z,13.10
2019-06-26T17:38:50.281Z,14.27
2019-06-26T17:41:29.363Z,13.60
2019-06-26T17:44:00.285Z,14.83
2019-06-26T17:46:32.080Z,14.87
2019-06-26T17:49:19.663Z,14.10
2019-06-26T17:51:50.449Z,14.60
2019-06-26T17:54:23.150Z,14.50
2019-06-26T17:57:00.296Z,13.40
2019-06-26T17:59:43.221Z,14.23
2019-06-26T18:02:16.393Z,14.27
2019-06-26T18:05:00.950Z,14.00
2019-06-26T18:07:31.391Z,12.80
2019-06-26T18:10:05.465Z,13.40
2019-06-26T18:12:36.996Z,14.67
2019-06-26T18:15:09.384Z,14.40
2019-06-26T18:17:40.250Z,14.70
2019-06-26T18:20:33.046Z,14.80
2019-06-26T18:23:07.478Z,15.57
2019-06-26T18:25:53.848Z,15.40
2019-06-26T18:28:21.978Z,16.17
2019-06-26T18:30:59.312Z,17.70
2019-06-26T18:33:37.195Z,14.30
2019-06-26T18:36:07.789Z,13.40
2019-06-26T18:38:38.843Z,13.00
2019-06-26T18:41:11.677Z,13.10
2019-06-26T18:43:42.794Z,12.73
2019-06-26T18:46:15.952Z,14.33
2019-06-26T18:48:46.665Z,15.07
2019-06-26T18:51:17.854Z,12.67
2019-06-26T18:53:53.483Z,13.90
2019-06-26T18:56:21.559Z,12.20
2019-06-26T18:59:01.568Z,12.90
2019-06-26T19:01:32.825Z,12.10
2019-06-26T19:04:04.527Z,15.10
2019-06-26T19:06:46.650Z,13.30
2019-06-26T19:09:20.376Z,14.00
2019-06-26T19:11:57.407Z,16.03
2019-06-26T19:14:29.048Z,13.83
2019-06-26T19:17:00.383Z,13.47
2019-06-26T19:19:31.956Z,13.63
2019-06-26T19:22:02.498Z,12.63
2019-06-26T19:24:33.313Z,12.83
2019-06-26T19:27:07.702Z,15.10
2019-06-26T19:29:39.098Z,14.27
2019-06-26T19:32:10.905Z,12.83
2019-06-26T19:34:42.397Z,12.40
2019-06-26T19:37:13.347Z,13.10
2019-06-26T19:39:44.438Z,12.13
2019-06-26T19:42:15.333Z,13.80
2019-06-26T19:44:47.901Z,12.33
2019-06-26T19:47:26.811Z,13.00
2019-06-26T19:50:12.554Z,12.98
2019-06-26T19:52:43.802Z,16.33
2019-06-26T19:55:20.613Z,15.83
2019-06-26T19:57:52.223Z,11.87
2019-06-26T20:00:23.521Z,11.33
2019-06-26T20:02:56.343Z,12.83
2019-06-26T20:05:27.054Z,10.90
2019-06-26T20:07:57.829Z,15.47
2019-06-26T20:10:31.285Z,13.30
2019-06-26T20:13:05.829Z,11.77
2019-06-26T20:15:36.824Z,11.07
2019-06-26T20:18:07.326Z,13.37
2019-06-26T20:20:37.959Z,11.03
2019-06-26T20:23:08.549Z,11.50
2019-06-26T20:25:39.727Z,12.00
2019-06-26T20:28:11.546Z,12.60
2019-06-26T20:30:47.067Z,10.83
2019-06-26T20:33:18.569Z,10.87
2019-06-26T20:35:54.146Z,10.87
2019-06-26T20:38:36.692Z,10.27
2019-06-26T20:41:11.044Z,12.63
2019-06-26T20:43:42.233Z,11.00
2019-06-26T20:46:15.395Z,11.23
2019-06-26T20:48:44.846Z,12.68
2019-06-26T20:51:15.846Z,10.03
2019-06-26T20:53:49.005Z,33.97
2019-06-26T20:56:19.569Z,13.00
2019-06-26T20:58:49.676Z,11.97
2019-06-26T21:01:19.641Z,9.93
2019-06-26T21:03:50.091Z,11.30
2019-06-26T21:06:20.749Z,15.70
2019-06-26T21:08:52.014Z,10.87
2019-06-26T21:11:22.472Z,11.23
2019-06-26T21:13:52.861Z,10.00
2019-06-26T21:16:22.946Z,9.50
2019-06-26T21:18:53.565Z,9.40
2019-06-26T21:21:25.853Z,9.37
2019-06-26T21:23:55.986Z,9.03
2019-06-26T21:26:27.586Z,9.20
2019-06-26T21:29:00.863Z,9.00
2019-06-26T21:31:31.367Z,8.60
2019-06-26T21:34:02.210Z,9.47
2019-06-26T21:36:34.272Z,10.70
2019-06-26T21:39:05.861Z,9.97
2019-06-26T21:41:36.945Z,8.07
2019-06-26T21:44:09.288Z,8.07
2019-06-26T21:46:39.469Z,6.93
2019-06-26T21:49:09.606Z,7.00
2019-06-26T21:51:43.738Z,8.13
2019-06-26T21:54:13.437Z,8.30
2019-06-26T21:56:43.935Z,6.63
2019-06-26T21:59:15.062Z,7.57
2019-06-26T22:01:45.377Z,6.80
2019-06-26T22:04:20.087Z,6.40
2019-06-26T22:06:54.495Z,6.67
2019-06-26T22:09:25.127Z,13.00
2019-06-26T22:12:00.941Z,6.47
2019-06-26T22:14:31.936Z,7.10
2019-06-26T22:17:04.196Z,10.90
2019-06-26T22:19:38.064Z,5.53
2019-06-26T22:22:11.148Z,8.47
2019-06-26T22:24:42.121Z,7.50
2019-06-26T22:27:13.628Z,6.73
2019-06-26T22:29:44.421Z,6.17
2019-06-26T22:32:25.662Z,4.10
2019-06-26T22:34:59.355Z,6.90
2019-06-26T22:37:30.211Z,5.33
2019-06-26T22:40:02.664Z,5.60
2019-06-26T22:42:33.016Z,4.70
2019-06-26T22:45:04.121Z,7.73
2019-06-26T22:47:35.000Z,5.10
2019-06-26T22:50:06.099Z,4.70
2019-06-26T22:52:37.131Z,10.07
2019-06-26T22:55:08.706Z,5.03
2019-06-26T22:57:38.949Z,4.50
2019-06-26T23:00:11.007Z,5.40
2019-06-26T23:02:41.197Z,5.03
2019-06-26T23:05:11.759Z,5.40
2019-06-26T23:07:42.046Z,3.73
2019-06-26T23:10:12.723Z,4.40
2019-06-26T23:12:42.979Z,5.73
2019-06-26T23:15:13.567Z,5.90
2019-06-26T23:17:43.817Z,4.83
2019-06-26T23:20:14.387Z,5.70
2019-06-26T23:22:44.612Z,5.67
2019-06-26T23:25:15.930Z,5.40
2019-06-26T23:27:46.247Z,5.30
2019-06-26T23:30:19.414Z,5.67
2019-06-26T23:32:49.848Z,5.17
2019-06-26T23:35:19.820Z,4.80
2019-06-26T23:37:49.872Z,4.23
2019-06-26T23:40:20.048Z,4.60
2019-06-26T23:42:50.346Z,5.27
2019-06-26T23:45:22.387Z,5.27
2019-06-26T23:48:17.850Z,4.77
2019-06-26T23:50:49.104Z,8.17
2019-06-26T23:53:19.199Z,4.60
2019-06-26T23:55:51.827Z,5.50
2019-06-26T23:58:24.182Z,6.37
